createdAt,value
2017-06-26T00:00:05.668Z,21.28
2017-06-26T00:01:07.549Z,21.31
2017-06-26T00:02:09.406Z,21.28
2017-06-26T00:03:11.270Z,21.28
2017-06-26T00:04:25.401Z,21.25
2017-06-26T00:05:27.264Z,21.35
2017-06-26T00:06:29.129Z,21.31
2017-06-26T00:07:30.984Z,21.34
2017-06-26T00:08:32.791Z,21.37
2017-06-26T00:09:34.588Z,21.35
2017-06-26T00:10:36.446Z,21.37
2017-06-26T00:11:38.309Z,21.32
2017-06-26T00:12:40.193Z,21.34
2017-06-26T00:13:54.347Z,21.35
2017-06-26T00:14:56.211Z,21.34
2017-06-26T00:15:58.092Z,21.34
2017-06-26T00:16:59.951Z,21.28
2017-06-26T00:18:01.754Z,21.27
2017-06-26T00:19:03.554Z,21.32
2017-06-26T00:20:05.420Z,21.31
2017-06-26T00:21:07.302Z,21.31
2017-06-26T00:22:09.187Z,21.34
2017-06-26T00:23:23.386Z,21.38
2017-06-26T00:24:25.258Z,21.31
2017-06-26T00:25:27.143Z,21.38
2017-06-26T00:26:29.024Z,21.38
2017-06-26T00:27:30.829Z,21.35
2017-06-26T00:28:32.629Z,21.35
2017-06-26T00:29:34.511Z,21.47
2017-06-26T00:30:36.389Z,21.44
2017-06-26T00:31:38.251Z,21.49
2017-06-26T00:32:52.386Z,21.47
2017-06-26T00:33:54.249Z,21.37
2017-06-26T00:34:56.132Z,21.35
2017-06-26T00:35:58.016Z,21.38
2017-06-26T00:36:59.820Z,21.40
2017-06-26T00:38:01.617Z,21.25
2017-06-26T00:39:03.501Z,21.27
2017-06-26T00:40:05.383Z,21.32
2017-06-26T00:41:07.265Z,21.28
2017-06-26T00:42:21.396Z,21.27
2017-06-26T00:43:23.277Z,21.25
2017-06-26T00:44:25.153Z,21.29
2017-06-26T00:45:27.016Z,21.28
2017-06-26T00:46:28.842Z,21.29
2017-06-26T00:47:30.665Z,21.29
2017-06-26T00:48:32.551Z,21.25
2017-06-26T00:49:34.427Z,21.27
2017-06-26T00:50:36.291Z,21.32
2017-06-26T00:51:50.442Z,21.25
2017-06-26T00:52:52.311Z,21.27
2017-06-26T00:53:54.194Z,21.31
2017-06-26T00:54:56.077Z,21.24
2017-06-26T00:55:57.882Z,21.31
2017-06-26T00:56:59.678Z,21.42
2017-06-26T00:58:01.539Z,21.34
2017-06-26T00:59:03.398Z,21.43
2017-06-26T01:00:05.260Z,21.35
2017-06-26T01:01:19.389Z,21.35
2017-06-26T01:02:21.256Z,21.32
2017-06-26T01:03:23.114Z,21.37
2017-06-26T01:04:24.972Z,21.25
2017-06-26T01:05:26.778Z,21.29
2017-06-26T01:06:28.575Z,21.28
2017-06-26T01:07:30.439Z,21.28
2017-06-26T01:08:32.325Z,21.17
2017-06-26T01:09:34.201Z,21.29
2017-06-26T01:10:48.386Z,21.24
2017-06-26T01:11:50.265Z,21.25
2017-06-26T01:12:52.126Z,21.14
2017-06-26T01:13:53.987Z,21.04
2017-06-26T01:14:55.790Z,21.01
2017-06-26T01:15:57.586Z,20.91
2017-06-26T01:16:59.451Z,20.92
2017-06-26T01:18:01.332Z,20.77
2017-06-26T01:19:03.217Z,20.80
2017-06-26T01:20:17.420Z,20.82
2017-06-26T01:21:19.302Z,20.82
2017-06-26T01:22:21.187Z,20.88
2017-06-26T01:23:23.055Z,20.89
2017-06-26T01:24:24.884Z,20.92
2017-06-26T01:25:26.703Z,20.95
2017-06-26T01:26:28.568Z,20.89
2017-06-26T01:27:30.457Z,20.92
2017-06-26T01:28:32.332Z,20.94
2017-06-26T01:29:46.466Z,20.84
2017-06-26T01:30:48.335Z,20.84
2017-06-26T01:31:50.219Z,20.92
2017-06-26T01:32:52.102Z,20.91
2017-06-26T01:33:53.909Z,20.94
2017-06-26T01:34:55.710Z,20.98
2017-06-26T01:35:57.593Z,20.99
2017-06-26T01:36:59.451Z,20.99
2017-06-26T01:38:01.315Z,20.91
2017-06-26T01:39:15.457Z,20.89
2017-06-26T01:40:17.340Z,20.87
2017-06-26T01:41:19.227Z,20.88
2017-06-26T01:42:21.109Z,20.76
2017-06-26T01:43:22.919Z,20.77
2017-06-26T01:44:24.738Z,20.74
2017-06-26T01:45:26.605Z,20.72
2017-06-26T01:46:28.487Z,20.72
2017-06-26T01:47:30.343Z,20.54
2017-06-26T01:48:44.480Z,20.57
2017-06-26T01:49:46.345Z,20.57
2017-06-26T01:50:48.214Z,20.55
2017-06-26T01:51:50.096Z,20.57
2017-06-26T01:52:51.921Z,20.55
2017-06-26T01:53:53.720Z,20.51
2017-06-26T01:54:55.583Z,20.47
2017-06-26T01:55:57.469Z,20.39
2017-06-26T01:56:59.346Z,20.31
2017-06-26T01:58:13.484Z,20.35
2017-06-26T01:59:15.362Z,20.23
2017-06-26T02:00:17.227Z,20.20
2017-06-26T02:01:19.110Z,20.24
2017-06-26T02:02:20.919Z,20.24
2017-06-26T02:03:22.740Z,20.18
2017-06-26T02:04:24.625Z,20.18
2017-06-26T02:05:26.502Z,20.18
2017-06-26T02:06:28.370Z,20.26
2017-06-26T02:07:42.522Z,20.28
2017-06-26T02:08:44.393Z,20.31
2017-06-26T02:09:46.271Z,20.28
2017-06-26T02:10:48.138Z,20.31
2017-06-26T02:11:49.961Z,20.35
2017-06-26T02:12:51.752Z,20.23
2017-06-26T02:13:53.617Z,20.17
2017-06-26T02:14:55.503Z,20.24
2017-06-26T02:15:57.366Z,20.14
2017-06-26T02:17:11.525Z,20.20
2017-06-26T02:18:13.410Z,20.18
2017-06-26T02:19:15.289Z,20.23
2017-06-26T02:20:17.154Z,20.23
2017-06-26T02:21:18.968Z,20.20
2017-06-26T02:22:20.782Z,20.18
2017-06-26T02:23:22.642Z,20.21
2017-06-26T02:24:24.504Z,20.21
2017-06-26T02:25:26.368Z,20.21
2017-06-26T02:26:40.527Z,20.21
2017-06-26T02:27:42.409Z,20.24
2017-06-26T02:28:44.291Z,20.31
2017-06-26T02:29:46.151Z,20.20
2017-06-26T02:30:47.960Z,20.18
2017-06-26T02:31:49.778Z,20.35
2017-06-26T02:32:51.643Z,20.33
2017-06-26T02:33:53.527Z,20.32
2017-06-26T02:34:55.411Z,20.24
2017-06-26T02:36:09.568Z,20.33
2017-06-26T02:37:11.433Z,20.26
2017-06-26T02:38:13.301Z,20.20
2017-06-26T02:39:15.187Z,20.16
2017-06-26T02:40:17.015Z,20.28
2017-06-26T02:41:18.818Z,20.23
2017-06-26T02:42:20.705Z,20.20
2017-06-26T02:43:22.587Z,20.17
2017-06-26T02:44:24.537Z,20.20
2017-06-26T02:45:38.685Z,20.06
2017-06-26T02:46:40.548Z,20.06
2017-06-26T02:47:42.422Z,20.08
2017-06-26T02:48:44.289Z,20.08
2017-06-26T02:49:46.119Z,20.11
2017-06-26T02:50:47.943Z,20.02
2017-06-26T02:51:49.804Z,20.06
2017-06-26T02:52:51.670Z,20.01
2017-06-26T02:53:53.555Z,19.99
2017-06-26T02:55:07.711Z,20.02
2017-06-26T02:56:09.576Z,19.99
2017-06-26T02:57:11.448Z,19.98
2017-06-26T02:58:13.314Z,19.92
2017-06-26T02:59:15.114Z,19.96
2017-06-26T03:00:16.924Z,20.01
2017-06-26T03:01:18.803Z,19.98
2017-06-26T03:02:20.671Z,19.95
2017-06-26T03:03:22.563Z,19.98
2017-06-26T03:04:36.700Z,19.96
2017-06-26T03:05:38.581Z,20.01
2017-06-26T03:06:40.473Z,19.99
2017-06-26T03:07:42.338Z,20.01
2017-06-26T03:08:44.165Z,20.03
2017-06-26T03:09:45.963Z,20.01
2017-06-26T03:10:47.830Z,20.08
2017-06-26T03:11:49.699Z,20.02
2017-06-26T03:12:51.585Z,20.08
2017-06-26T03:14:05.722Z,20.08
2017-06-26T03:15:07.590Z,20.11
2017-06-26T03:16:09.482Z,20.11
2017-06-26T03:17:11.372Z,20.06
2017-06-26T03:18:13.198Z,20.14
2017-06-26T03:19:15.004Z,20.10
2017-06-26T03:20:16.891Z,20.08
2017-06-26T03:21:18.779Z,20.08
2017-06-26T03:22:20.648Z,20.16
2017-06-26T03:23:34.786Z,20.18
2017-06-26T03:24:36.669Z,20.21
2017-06-26T03:25:38.537Z,20.18
2017-06-26T03:26:40.399Z,20.23
2017-06-26T03:27:42.212Z,20.33
2017-06-26T03:28:44.040Z,20.33
2017-06-26T03:29:45.901Z,20.33
2017-06-26T03:30:47.791Z,20.16
2017-06-26T03:31:49.675Z,20.32
2017-06-26T03:33:03.813Z,20.20
2017-06-26T03:34:05.675Z,20.31
2017-06-26T03:35:07.548Z,20.23
2017-06-26T03:36:09.417Z,20.23
2017-06-26T03:37:11.225Z,20.20
2017-06-26T03:38:13.046Z,20.18
2017-06-26T03:39:14.910Z,20.20
2017-06-26T03:40:16.780Z,20.21
2017-06-26T03:41:18.651Z,20.24
2017-06-26T03:42:32.796Z,20.18
2017-06-26T03:43:34.663Z,20.23
2017-06-26T03:44:36.529Z,20.28
2017-06-26T03:45:38.397Z,20.29
2017-06-26T03:46:40.226Z,20.33
2017-06-26T03:47:42.034Z,20.23
2017-06-26T03:48:43.906Z,20.32
2017-06-26T03:49:45.794Z,20.20
2017-06-26T03:50:47.684Z,20.58
2017-06-26T03:52:01.843Z,20.92
2017-06-26T03:53:03.716Z,21.24
2017-06-26T03:54:05.608Z,21.40
2017-06-26T03:55:07.474Z,21.53
2017-06-26T03:56:09.287Z,21.52
2017-06-26T03:57:11.106Z,21.56
2017-06-26T03:58:12.954Z,21.67
2017-06-26T03:59:14.844Z,21.94
2017-06-26T04:00:16.728Z,22.33
2017-06-26T04:01:30.870Z,23.02
2017-06-26T04:02:32.736Z,23.51
2017-06-26T04:03:34.609Z,24.09
2017-06-26T04:04:36.480Z,24.60
2017-06-26T04:05:38.283Z,25.05
2017-06-26T04:06:40.093Z,25.38
2017-06-26T04:07:41.955Z,25.75
2017-06-26T04:08:43.824Z,26.13
2017-06-26T04:09:45.689Z,26.50
2017-06-26T04:10:59.837Z,26.82
2017-06-26T04:12:01.706Z,27.19
2017-06-26T04:13:03.580Z,27.39
2017-06-26T04:14:05.477Z,27.72
2017-06-26T04:15:07.308Z,27.97
2017-06-26T04:16:09.121Z,28.19
2017-06-26T04:17:11.015Z,28.39
2017-06-26T04:18:12.886Z,28.66
2017-06-26T04:19:14.779Z,28.78
2017-06-26T04:20:28.949Z,28.96
2017-06-26T04:21:30.837Z,29.18
2017-06-26T04:22:32.708Z,29.37
2017-06-26T04:23:34.582Z,29.51
2017-06-26T04:24:36.402Z,29.67
2017-06-26T04:25:38.235Z,29.87
2017-06-26T04:26:40.133Z,30.08
2017-06-26T04:27:42.028Z,30.29
2017-06-26T04:28:43.897Z,30.43
2017-06-26T04:29:58.050Z,30.61
2017-06-26T04:30:59.944Z,30.69
2017-06-26T04:32:01.837Z,30.82
2017-06-26T04:33:03.709Z,30.83
2017-06-26T04:34:05.533Z,30.79
2017-06-26T04:35:07.364Z,30.79
2017-06-26T04:36:09.242Z,30.69
2017-06-26T04:37:11.141Z,30.46
2017-06-26T04:38:13.037Z,30.29
2017-06-26T04:39:27.206Z,30.29
2017-06-26T04:40:29.102Z,30.13
2017-06-26T04:41:30.999Z,30.13
2017-06-26T04:42:32.902Z,29.95
2017-06-26T04:43:34.746Z,29.71
2017-06-26T04:44:36.579Z,29.89
2017-06-26T04:45:38.478Z,30.19
2017-06-26T04:46:40.368Z,30.53
2017-06-26T04:47:42.244Z,30.72
2017-06-26T04:48:56.395Z,30.73
2017-06-26T04:49:58.271Z,30.80
2017-06-26T04:51:00.164Z,30.75
2017-06-26T04:52:02.048Z,30.77
2017-06-26T04:53:03.886Z,31.07
2017-06-26T04:54:05.718Z,31.16
2017-06-26T04:55:07.594Z,31.09
2017-06-26T04:56:09.487Z,31.25
2017-06-26T04:57:11.367Z,31.28
2017-06-26T04:58:25.513Z,31.29
2017-06-26T04:59:27.387Z,31.46
2017-06-26T05:00:29.263Z,31.69
2017-06-26T05:01:31.156Z,31.73
2017-06-26T05:02:32.978Z,31.72
2017-06-26T05:03:34.807Z,31.47
2017-06-26T05:04:36.713Z,31.01
2017-06-26T05:05:38.631Z,30.43
2017-06-26T05:06:40.543Z,29.95
2017-06-26T05:07:54.784Z,29.23
2017-06-26T05:08:56.715Z,28.93
2017-06-26T05:09:58.634Z,28.39
2017-06-26T05:11:00.575Z,28.02
2017-06-26T05:12:02.452Z,27.66
2017-06-26T05:13:04.268Z,27.44
2017-06-26T05:14:06.141Z,27.21
2017-06-26T05:15:08.015Z,26.92
2017-06-26T05:16:09.906Z,26.76
2017-06-26T05:17:24.050Z,26.48
2017-06-26T05:18:25.939Z,26.23
2017-06-26T05:19:27.811Z,25.95
2017-06-26T05:20:29.685Z,25.88
2017-06-26T05:21:31.499Z,25.76
2017-06-26T05:22:33.332Z,25.64
2017-06-26T05:23:35.224Z,25.57
2017-06-26T05:24:37.116Z,25.38
2017-06-26T05:25:38.980Z,25.25
2017-06-26T05:26:53.128Z,25.03
2017-06-26T05:27:55.018Z,24.95
2017-06-26T05:28:56.891Z,24.84
2017-06-26T05:29:58.782Z,24.83
2017-06-26T05:31:00.620Z,24.57
2017-06-26T05:32:02.449Z,24.34
2017-06-26T05:33:04.343Z,24.13
2017-06-26T05:34:06.234Z,23.87
2017-06-26T05:35:08.103Z,23.76
2017-06-26T05:36:22.262Z,23.83
2017-06-26T05:37:24.130Z,23.79
2017-06-26T05:38:26.000Z,23.97
2017-06-26T05:39:27.875Z,23.95
2017-06-26T05:40:29.710Z,23.98
2017-06-26T05:41:31.537Z,24.00
2017-06-26T05:42:33.426Z,24.08
2017-06-26T05:43:35.296Z,24.00
2017-06-26T05:44:37.165Z,24.02
2017-06-26T05:45:51.312Z,23.94
2017-06-26T05:46:53.198Z,23.88
2017-06-26T05:47:55.063Z,23.90
2017-06-26T05:48:56.930Z,23.80
2017-06-26T05:49:58.744Z,23.75
2017-06-26T05:51:00.552Z,23.66
2017-06-26T05:52:02.442Z,23.65
2017-06-26T05:53:04.331Z,23.55
2017-06-26T05:54:06.217Z,23.57
2017-06-26T05:55:20.360Z,23.58
2017-06-26T05:56:22.244Z,23.53
2017-06-26T05:57:24.114Z,23.43
2017-06-26T05:58:26.006Z,23.43
2017-06-26T05:59:27.818Z,23.31
2017-06-26T06:00:29.646Z,23.35
2017-06-26T06:01:31.508Z,23.27
2017-06-26T06:02:33.373Z,23.28
2017-06-26T06:03:35.242Z,23.27
2017-06-26T06:04:49.406Z,23.28
2017-06-26T06:05:51.276Z,23.13
2017-06-26T06:06:53.165Z,23.13
2017-06-26T06:07:55.056Z,23.16
2017-06-26T06:08:56.883Z,23.17
2017-06-26T06:09:58.691Z,23.25
2017-06-26T06:11:00.566Z,23.35
2017-06-26T06:12:02.433Z,23.47
2017-06-26T06:13:04.323Z,23.48
2017-06-26T06:14:18.484Z,23.57
2017-06-26T06:15:20.348Z,23.73
2017-06-26T06:16:22.223Z,23.85
2017-06-26T06:17:24.114Z,23.85
2017-06-26T06:18:25.949Z,23.98
2017-06-26T06:19:27.778Z,24.15
2017-06-26T06:20:29.649Z,24.22
2017-06-26T06:21:31.524Z,24.40
2017-06-26T06:22:33.412Z,24.47
2017-06-26T06:23:47.556Z,24.57
2017-06-26T06:24:49.444Z,24.39
2017-06-26T06:25:51.339Z,24.42
2017-06-26T06:26:53.230Z,24.39
2017-06-26T06:27:55.060Z,24.35
2017-06-26T06:28:56.869Z,24.37
2017-06-26T06:29:58.739Z,24.25
2017-06-26T06:31:00.631Z,24.13
2017-06-26T06:32:02.521Z,24.13
2017-06-26T06:33:16.684Z,24.15
2017-06-26T06:34:18.556Z,24.13
2017-06-26T06:35:20.447Z,24.31
2017-06-26T06:36:22.340Z,24.49
2017-06-26T06:37:24.152Z,24.53
2017-06-26T06:38:25.992Z,24.76
2017-06-26T06:39:27.873Z,24.81
2017-06-26T06:40:29.745Z,24.85
2017-06-26T06:41:31.635Z,24.71
2017-06-26T06:42:45.800Z,24.53
2017-06-26T06:43:47.670Z,24.39
2017-06-26T06:44:49.535Z,24.21
2017-06-26T06:45:51.409Z,24.10
2017-06-26T06:46:53.240Z,24.15
2017-06-26T06:47:55.055Z,24.16
2017-06-26T06:48:56.927Z,24.21
2017-06-26T06:49:58.820Z,24.55
2017-06-26T06:51:00.709Z,24.83
2017-06-26T06:52:14.856Z,24.80
2017-06-26T06:53:16.726Z,24.81
2017-06-26T06:54:18.610Z,24.61
2017-06-26T06:55:20.488Z,24.52
2017-06-26T06:56:22.324Z,24.47
2017-06-26T06:57:24.159Z,24.40
2017-06-26T06:58:26.042Z,24.20
2017-06-26T06:59:27.918Z,24.10
2017-06-26T07:00:29.805Z,24.08
2017-06-26T07:01:43.972Z,24.09
2017-06-26T07:02:45.859Z,24.09
2017-06-26T07:03:47.732Z,24.05
2017-06-26T07:04:49.625Z,23.98
2017-06-26T07:05:51.456Z,23.75
2017-06-26T07:06:53.282Z,23.58
2017-06-26T07:07:55.153Z,23.60
2017-06-26T07:08:57.038Z,23.51
2017-06-26T07:09:58.913Z,23.35
2017-06-26T07:11:13.053Z,23.25
2017-06-26T07:12:14.922Z,23.15
2017-06-26T07:13:16.794Z,23.09
2017-06-26T07:14:18.658Z,23.07
2017-06-26T07:15:20.477Z,23.15
2017-06-26T07:16:22.311Z,23.22
2017-06-26T07:17:24.194Z,23.22
2017-06-26T07:18:26.065Z,23.28
2017-06-26T07:19:27.954Z,23.32
2017-06-26T07:20:42.098Z,23.09
2017-06-26T07:21:43.972Z,22.98
2017-06-26T07:22:45.833Z,22.97
2017-06-26T07:23:47.703Z,23.00
2017-06-26T07:24:49.516Z,22.88
2017-06-26T07:25:51.323Z,22.83
2017-06-26T07:26:53.193Z,22.83
2017-06-26T07:27:55.085Z,22.91
2017-06-26T07:28:56.950Z,22.90
2017-06-26T07:30:11.097Z,22.85
2017-06-26T07:31:12.971Z,22.68
2017-06-26T07:32:14.863Z,22.61
2017-06-26T07:33:16.757Z,22.80
2017-06-26T07:34:18.587Z,22.86
2017-06-26T07:35:20.400Z,23.12
2017-06-26T07:36:22.292Z,23.25
2017-06-26T07:37:24.161Z,23.50
2017-06-26T07:38:26.052Z,23.57
2017-06-26T07:39:40.226Z,23.88
2017-06-26T07:40:42.077Z,24.08
2017-06-26T07:41:43.969Z,24.10
2017-06-26T07:42:45.835Z,23.94
2017-06-26T07:43:47.687Z,23.85
2017-06-26T07:44:49.513Z,23.83
2017-06-26T07:45:51.331Z,23.97
2017-06-26T07:46:53.226Z,24.03
2017-06-26T07:47:55.117Z,23.93
2017-06-26T07:49:09.322Z,23.91
2017-06-26T07:50:11.210Z,24.05
2017-06-26T07:51:13.131Z,24.10
2017-06-26T07:52:14.990Z,24.25
2017-06-26T07:53:16.804Z,24.47
2017-06-26T07:54:18.638Z,24.71
2017-06-26T07:55:20.528Z,24.80
2017-06-26T07:56:22.401Z,24.91
2017-06-26T07:57:24.290Z,25.14
2017-06-26T07:58:38.441Z,25.25
2017-06-26T07:59:40.333Z,25.55
2017-06-26T08:00:42.227Z,25.72
2017-06-26T08:01:44.120Z,25.65
2017-06-26T08:02:45.936Z,25.80
2017-06-26T08:03:47.785Z,25.95
2017-06-26T08:04:49.675Z,25.98
2017-06-26T08:05:51.548Z,26.05
2017-06-26T08:06:53.437Z,25.91
2017-06-26T08:08:07.591Z,25.69
2017-06-26T08:09:09.494Z,25.54
2017-06-26T08:10:11.368Z,25.27
2017-06-26T08:11:13.245Z,25.15
2017-06-26T08:12:15.077Z,25.05
2017-06-26T08:13:16.890Z,24.80
2017-06-26T08:14:19.102Z,24.76
2017-06-26T08:15:22.147Z,24.77
2017-06-26T08:17:39.812Z,24.81
2017-06-26T08:18:41.709Z,24.80
2017-06-26T08:19:43.597Z,24.85
2017-06-26T08:20:45.485Z,24.83
2017-06-26T08:21:47.306Z,24.91
2017-06-26T08:22:49.136Z,24.83
2017-06-26T08:23:51.006Z,24.60
2017-06-26T08:24:52.878Z,24.25
2017-06-26T08:25:54.764Z,24.35
2017-06-26T08:27:08.912Z,24.64
2017-06-26T08:28:10.777Z,24.55
2017-06-26T08:29:12.654Z,24.42
2017-06-26T08:30:14.547Z,24.28
2017-06-26T08:31:16.384Z,24.43
2017-06-26T08:32:18.216Z,24.57
2017-06-26T08:33:20.105Z,24.71
2017-06-26T08:34:21.979Z,24.85
2017-06-26T08:35:23.866Z,24.90
2017-06-26T08:36:38.015Z,25.14
2017-06-26T08:37:39.903Z,25.35
2017-06-26T08:38:41.777Z,25.62
2017-06-26T08:39:43.654Z,25.72
2017-06-26T08:40:45.493Z,25.87
2017-06-26T08:41:47.326Z,26.13
2017-06-26T08:42:49.209Z,26.25
2017-06-26T08:43:51.083Z,26.05
2017-06-26T08:44:52.971Z,25.85
2017-06-26T08:46:07.123Z,25.65
2017-06-26T08:47:09.005Z,25.70
2017-06-26T08:48:10.882Z,25.62
2017-06-26T08:49:12.773Z,25.52
2017-06-26T08:50:14.585Z,25.54
2017-06-26T08:51:16.397Z,25.60
2017-06-26T08:52:18.290Z,25.52
2017-06-26T08:53:20.168Z,25.45
2017-06-26T08:54:22.057Z,25.47
2017-06-26T08:55:36.202Z,25.52
2017-06-26T08:56:38.075Z,25.57
2017-06-26T08:57:39.969Z,25.64
2017-06-26T08:58:41.862Z,25.69
2017-06-26T08:59:43.694Z,25.60
2017-06-26T09:00:45.505Z,25.62
2017-06-26T09:01:47.380Z,25.69
2017-06-26T09:02:49.269Z,25.88
2017-06-26T09:03:51.143Z,25.92
2017-06-26T09:05:05.361Z,26.02
2017-06-26T09:06:07.249Z,26.02
2017-06-26T09:07:09.131Z,25.97
2017-06-26T09:08:11.001Z,25.88
2017-06-26T09:09:12.841Z,25.87
2017-06-26T09:10:14.668Z,25.82
2017-06-26T09:11:16.544Z,25.85
2017-06-26T09:12:18.441Z,25.82
2017-06-26T09:13:20.330Z,25.67
2017-06-26T09:14:34.498Z,25.94
2017-06-26T09:15:36.390Z,25.90
2017-06-26T09:16:38.263Z,25.55
2017-06-26T09:17:40.150Z,25.27
2017-06-26T09:18:41.967Z,25.08
2017-06-26T09:19:43.796Z,24.87
2017-06-26T09:20:45.686Z,24.80
2017-06-26T09:21:47.555Z,24.84
2017-06-26T09:22:49.425Z,24.95
2017-06-26T09:24:03.592Z,25.09
2017-06-26T09:25:05.476Z,25.06
2017-06-26T09:26:07.345Z,25.08
2017-06-26T09:27:09.222Z,25.03
2017-06-26T09:28:11.055Z,24.84
2017-06-26T09:29:12.886Z,24.76
2017-06-26T09:30:14.777Z,24.57
2017-06-26T09:31:16.648Z,24.43
2017-06-26T09:32:18.538Z,24.31
2017-06-26T09:33:32.702Z,24.18
2017-06-26T09:34:34.571Z,24.13
2017-06-26T09:35:36.442Z,24.10
2017-06-26T09:36:38.327Z,24.06
2017-06-26T09:37:40.141Z,24.12
2017-06-26T09:38:41.945Z,24.09
2017-06-26T09:39:43.812Z,23.94
2017-06-26T09:40:45.683Z,23.87
2017-06-26T09:41:47.549Z,23.98
2017-06-26T09:43:01.696Z,24.12
2017-06-26T09:44:03.579Z,24.13
2017-06-26T09:45:05.455Z,24.13
2017-06-26T09:46:07.320Z,24.10
2017-06-26T09:47:09.133Z,24.03
2017-06-26T09:48:10.938Z,24.06
2017-06-26T09:49:12.805Z,24.09
2017-06-26T09:50:14.679Z,24.18
2017-06-26T09:51:16.563Z,24.37
2017-06-26T09:52:30.709Z,24.37
2017-06-26T09:53:32.578Z,24.47
2017-06-26T09:54:34.467Z,24.55
2017-06-26T09:55:36.356Z,24.47
2017-06-26T09:56:38.166Z,24.40
2017-06-26T09:57:39.977Z,24.35
2017-06-26T09:58:41.844Z,24.39
2017-06-26T09:59:43.733Z,24.31
2017-06-26T10:00:45.622Z,24.31
2017-06-26T10:01:59.769Z,24.13
2017-06-26T10:03:01.689Z,24.20
2017-06-26T10:04:03.581Z,24.10
2017-06-26T10:05:05.474Z,24.22
2017-06-26T10:06:07.294Z,24.15
2017-06-26T10:07:09.128Z,24.08
2017-06-26T10:08:11.015Z,24.08
2017-06-26T10:09:12.902Z,24.02
2017-06-26T10:10:14.774Z,24.06
2017-06-26T10:11:28.941Z,23.97
2017-06-26T10:12:30.828Z,23.80
2017-06-26T10:13:32.718Z,23.55
2017-06-26T10:14:34.591Z,23.53
2017-06-26T10:15:36.423Z,23.32
2017-06-26T10:16:38.228Z,23.19
2017-06-26T10:17:40.102Z,23.33
2017-06-26T10:18:41.974Z,23.23
2017-06-26T10:19:43.863Z,23.07
2017-06-26T10:20:58.027Z,22.83
2017-06-26T10:21:59.900Z,22.79
2017-06-26T10:23:01.793Z,22.77
2017-06-26T10:24:03.680Z,22.76
2017-06-26T10:25:05.494Z,22.72
2017-06-26T10:26:07.327Z,22.77
2017-06-26T10:27:09.212Z,22.86
2017-06-26T10:28:11.083Z,23.00
2017-06-26T10:29:12.952Z,23.07
2017-06-26T10:30:27.119Z,23.15
2017-06-26T10:31:29.004Z,23.28
2017-06-26T10:32:30.871Z,23.36
2017-06-26T10:33:32.743Z,23.46
2017-06-26T10:34:34.555Z,23.40
2017-06-26T10:35:36.362Z,23.53
2017-06-26T10:36:38.232Z,23.55
2017-06-26T10:37:40.101Z,23.57
2017-06-26T10:38:41.973Z,23.63
2017-06-26T10:39:56.136Z,23.70
2017-06-26T10:40:58.023Z,23.55
2017-06-26T10:41:59.891Z,23.51
2017-06-26T10:43:01.766Z,23.39
2017-06-26T10:44:03.596Z,23.48
2017-06-26T10:45:05.406Z,23.39
2017-06-26T10:46:07.273Z,23.39
2017-06-26T10:47:09.167Z,23.35
2017-06-26T10:48:11.057Z,23.32
2017-06-26T10:49:25.265Z,23.17
2017-06-26T10:50:27.151Z,23.02
2017-06-26T10:51:29.001Z,23.05
2017-06-26T10:52:30.869Z,23.12
2017-06-26T10:53:32.676Z,23.33
2017-06-26T10:54:34.483Z,23.33
2017-06-26T10:55:36.351Z,23.31
2017-06-26T10:56:38.222Z,23.07
2017-06-26T10:57:40.117Z,23.15
2017-06-26T10:58:54.251Z,23.19
2017-06-26T10:59:56.116Z,23.19
2017-06-26T11:00:57.989Z,23.10
2017-06-26T11:01:59.876Z,23.17
2017-06-26T11:03:01.690Z,23.02
2017-06-26T11:04:03.501Z,23.00
2017-06-26T11:05:05.386Z,22.92
2017-06-26T11:06:07.253Z,22.85
2017-06-26T11:07:09.126Z,22.88
2017-06-26T11:08:23.288Z,22.72
2017-06-26T11:09:25.157Z,22.68
2017-06-26T11:10:27.027Z,22.61
2017-06-26T11:11:28.898Z,22.65
2017-06-26T11:12:30.728Z,22.62
2017-06-26T11:13:32.537Z,22.65
2017-06-26T11:14:34.407Z,22.75
2017-06-26T11:15:36.298Z,22.75
2017-06-26T11:16:38.190Z,22.75
2017-06-26T11:17:52.351Z,22.77
2017-06-26T11:18:54.223Z,22.88
2017-06-26T11:19:56.110Z,22.68
2017-06-26T11:20:57.983Z,22.68
2017-06-26T11:21:59.789Z,22.57
2017-06-26T11:23:01.594Z,22.58
2017-06-26T11:24:03.464Z,22.64
2017-06-26T11:25:05.348Z,22.73
2017-06-26T11:26:07.222Z,22.73
2017-06-26T11:27:21.429Z,22.90
2017-06-26T11:28:23.298Z,22.91
2017-06-26T11:29:25.191Z,22.77
2017-06-26T11:30:27.080Z,22.57
2017-06-26T11:31:28.889Z,22.49
2017-06-26T11:32:30.701Z,22.25
2017-06-26T11:33:32.592Z,22.12
2017-06-26T11:34:34.461Z,22.05
2017-06-26T11:35:36.352Z,21.98
2017-06-26T11:36:50.512Z,22.10
2017-06-26T11:37:52.384Z,22.00
2017-06-26T11:38:54.252Z,22.09
2017-06-26T11:39:56.141Z,21.96
2017-06-26T11:40:57.959Z,21.86
2017-06-26T11:41:59.761Z,21.69
2017-06-26T11:43:01.630Z,21.61
2017-06-26T11:44:03.499Z,21.54
2017-06-26T11:45:05.375Z,21.56
2017-06-26T11:46:19.539Z,21.49
2017-06-26T11:47:21.429Z,21.52
2017-06-26T11:48:23.321Z,21.65
2017-06-26T11:49:25.193Z,21.83
2017-06-26T11:50:27.031Z,21.91
2017-06-26T11:51:28.832Z,22.06
2017-06-26T11:52:30.704Z,22.15
2017-06-26T11:53:32.574Z,22.35
2017-06-26T11:54:34.464Z,22.65
2017-06-26T11:55:48.633Z,23.17
2017-06-26T11:56:50.518Z,23.58
2017-06-26T11:57:52.393Z,23.83
2017-06-26T11:58:54.361Z,23.93
2017-06-26T11:59:56.364Z,23.93
2017-06-26T12:00:58.182Z,23.76
2017-06-26T12:02:00.057Z,23.73
2017-06-26T12:03:02.077Z,23.66
2017-06-26T12:04:04.046Z,23.55
2017-06-26T12:05:18.244Z,23.60
2017-06-26T12:06:20.133Z,23.65
2017-06-26T12:07:22.006Z,23.70
2017-06-26T12:08:23.886Z,23.61
2017-06-26T12:09:25.718Z,23.51
2017-06-26T12:10:27.651Z,23.36
2017-06-26T12:11:29.542Z,23.36
2017-06-26T12:12:31.416Z,23.47
2017-06-26T12:13:33.302Z,23.61
2017-06-26T12:14:47.503Z,23.66
2017-06-26T12:15:49.395Z,23.66
2017-06-26T12:16:51.301Z,23.72
2017-06-26T12:17:53.161Z,23.80
2017-06-26T12:18:55.000Z,23.79
2017-06-26T12:19:56.827Z,23.98
2017-06-26T12:20:58.721Z,23.95
2017-06-26T12:22:00.617Z,23.97
2017-06-26T12:23:02.601Z,24.03
2017-06-26T12:24:16.767Z,24.08
2017-06-26T12:25:18.724Z,24.31
2017-06-26T12:26:20.591Z,24.40
2017-06-26T12:27:22.461Z,24.46
2017-06-26T12:28:24.339Z,24.50
2017-06-26T12:29:26.290Z,24.42
2017-06-26T12:30:28.160Z,24.43
2017-06-26T12:31:30.123Z,24.40
2017-06-26T12:32:31.991Z,24.39
2017-06-26T12:33:46.189Z,24.37
2017-06-26T12:34:48.083Z,24.35
2017-06-26T12:35:49.980Z,24.15
2017-06-26T12:36:51.874Z,24.24
2017-06-26T12:37:53.709Z,24.32
2017-06-26T12:38:55.514Z,24.37
2017-06-26T12:39:57.383Z,24.42
2017-06-26T12:40:59.258Z,24.55
2017-06-26T12:42:01.130Z,24.60
2017-06-26T12:43:15.391Z,24.39
2017-06-26T12:44:17.280Z,24.22
2017-06-26T12:45:19.151Z,24.24
2017-06-26T12:46:21.022Z,24.09
2017-06-26T12:47:22.840Z,24.09
2017-06-26T12:48:24.750Z,24.15
2017-06-26T12:49:26.622Z,24.35
2017-06-26T12:50:28.492Z,24.45
2017-06-26T12:51:30.323Z,24.57
2017-06-26T12:52:44.614Z,24.60
2017-06-26T12:53:46.470Z,24.20
2017-06-26T12:54:48.354Z,24.21
2017-06-26T12:55:50.253Z,24.09
2017-06-26T12:56:52.086Z,23.95
2017-06-26T12:57:53.914Z,23.76
2017-06-26T12:58:55.785Z,23.79
2017-06-26T12:59:57.658Z,23.73
2017-06-26T13:00:59.550Z,23.95
2017-06-26T13:02:13.722Z,24.31
2017-06-26T13:03:15.612Z,24.68
2017-06-26T13:04:17.479Z,24.95
2017-06-26T13:05:19.352Z,25.00
2017-06-26T13:06:21.169Z,24.90
2017-06-26T13:07:22.977Z,24.91
2017-06-26T13:08:24.855Z,24.98
2017-06-26T13:09:26.744Z,24.96
2017-06-26T13:10:28.617Z,25.05
2017-06-26T13:11:42.782Z,25.18
2017-06-26T13:12:44.654Z,25.14
2017-06-26T13:13:46.530Z,25.18
2017-06-26T13:14:48.423Z,25.09
2017-06-26T13:15:50.260Z,24.95
2017-06-26T13:16:52.091Z,24.77
2017-06-26T13:17:53.961Z,24.73
2017-06-26T13:18:55.833Z,24.68
2017-06-26T13:19:57.702Z,24.58
2017-06-26T13:21:11.875Z,24.43
2017-06-26T13:22:13.770Z,24.31
2017-06-26T13:23:15.664Z,24.16
2017-06-26T13:24:17.556Z,23.98
2017-06-26T13:25:19.392Z,23.75
2017-06-26T13:26:21.226Z,23.76
2017-06-26T13:27:23.122Z,23.95
2017-06-26T13:28:25.087Z,24.02
2017-06-26T13:29:27.013Z,24.13
2017-06-26T13:30:41.180Z,24.46
2017-06-26T13:31:43.064Z,24.68
2017-06-26T13:32:44.947Z,24.80
2017-06-26T13:33:46.817Z,24.83
2017-06-26T13:34:48.654Z,24.76